sensor_id;sensor_type;location;lat;lon;timestamp;pressure;altitude;pressure_sealevel;temperature;humidity
76122;BME280;64853;53.200;6.080;2023-04-05T00:00:01;102672.34;;;17.57;37.61
76122;BME280;64853;53.200;6.080;2023-04-05T00:04:57;102668.41;;;17.53;37.46
76122;BME280;64853;53.200;6.080;2023-04-05T00:09:50;102667.19;;;17.49;37.49
76122;BME280;64853;53.200;6.080;2023-04-05T00:14:41;102670.41;;;17.46;37.39
76122;BME280;64853;53.200;6.080;2023-04-05T00:19:35;102633.03;;;17.26;37.47
76122;BME280;64853;53.200;6.080;2023-04-05T00:24:27;102651.03;;;17.41;37.55
76122;BME280;64853;53.200;6.080;2023-04-05T00:29:20;102651.38;;;17.33;37.59
76122;BME280;64853;53.200;6.080;2023-04-05T00:34:12;102654.50;;;17.36;37.38
76122;BME280;64853;53.200;6.080;2023-04-05T00:39:06;102650.28;;;17.34;37.32
76122;BME280;64853;53.200;6.080;2023-04-05T00:44:01;102656.03;;;17.32;37.33
76122;BME280;64853;53.200;6.080;2023-04-05T00:48:53;102654.63;;;17.29;37.07
76122;BME280;64853;53.200;6.080;2023-04-05T00:53:46;102646.81;;;17.26;37.22
76122;BME280;64853;53.200;6.080;2023-04-05T00:58:43;102644.53;;;17.23;37.39
76122;BME280;64853;53.200;6.080;2023-04-05T01:03:40;102643.31;;;17.19;37.43
76122;BME280;64853;53.200;6.080;2023-04-05T01:08:41;102632.78;;;17.16;36.97
76122;BME280;64853;53.200;6.080;2023-04-05T01:13:36;102635.97;;;17.13;37.04
76122;BME280;64853;53.200;6.080;2023-04-05T01:18:30;102633.22;;;17.13;37.07
76122;BME280;64853;53.200;6.080;2023-04-05T01:23:36;102623.78;;;17.09;37.02
76122;BME280;64853;53.200;6.080;2023-04-05T01:34:09;102623.63;;;17.04;37.09
76122;BME280;64853;53.200;6.080;2023-04-05T01:39:07;102613.59;;;16.98;37.10
76122;BME280;64853;53.200;6.080;2023-04-05T01:43:59;102587.09;;;16.85;37.13
76122;BME280;64853;53.200;6.080;2023-04-05T01:48:51;102593.44;;;16.85;37.08
76122;BME280;64853;53.200;6.080;2023-04-05T01:53:45;102608.56;;;16.94;37.03
76122;BME280;64853;53.200;6.080;2023-04-05T01:58:36;102604.13;;;16.93;36.88
76122;BME280;64853;53.200;6.080;2023-04-05T02:03:29;102571.16;;;16.75;36.63
76122;BME280;64853;53.200;6.080;2023-04-05T02:08:21;102585.19;;;16.85;36.81
76122;BME280;64853;53.200;6.080;2023-04-05T02:13:14;102581.81;;;16.83;36.91
76122;BME280;64853;53.200;6.080;2023-04-05T02:18:07;102576.06;;;16.73;37.00
76122;BME280;64853;53.200;6.080;2023-04-05T02:22:58;102588.66;;;16.92;37.06
76122;BME280;64853;53.200;6.080;2023-04-05T02:27:51;102566.13;;;16.72;36.84
76122;BME280;64853;53.200;6.080;2023-04-05T02:32:45;102576.22;;;16.90;36.65
76122;BME280;64853;53.200;6.080;2023-04-05T02:37:37;102570.81;;;16.83;36.86
76122;BME280;64853;53.200;6.080;2023-04-05T02:42:29;102570.00;;;16.94;36.78
76122;BME280;64853;53.200;6.080;2023-04-05T02:47:21;102579.09;;;16.95;36.47
76122;BME280;64853;53.200;6.080;2023-04-05T02:52:16;102565.81;;;16.92;36.58
76122;BME280;64853;53.200;6.080;2023-04-05T02:57:08;102539.81;;;16.76;36.59
76122;BME280;64853;53.200;6.080;2023-04-05T03:02:01;102562.34;;;16.97;36.63
76122;BME280;64853;53.200;6.080;2023-04-05T03:06:54;102568.31;;;16.93;36.44
76122;BME280;64853;53.200;6.080;2023-04-05T03:11:48;102556.09;;;16.89;36.37
76122;BME280;64853;53.200;6.080;2023-04-05T03:16:40;102556.84;;;16.97;36.51
76122;BME280;64853;53.200;6.080;2023-04-05T03:21:31;102551.81;;;16.93;36.26
76122;BME280;64853;53.200;6.080;2023-04-05T03:26:24;102552.28;;;16.90;36.59
76122;BME280;64853;53.200;6.080;2023-04-05T03:31:18;102551.22;;;16.91;36.69
76122;BME280;64853;53.200;6.080;2023-04-05T03:36:11;102545.47;;;16.93;36.38
76122;BME280;64853;53.200;6.080;2023-04-05T03:41:06;102535.88;;;16.84;36.58
76122;BME280;64853;53.200;6.080;2023-04-05T03:45:58;102539.59;;;17.13;36.31
76122;BME280;64853;53.200;6.080;2023-04-05T03:50:52;102520.78;;;17.34;35.94
76122;BME280;64853;53.200;6.080;2023-04-05T03:55:44;102528.44;;;17.55;35.91
76122;BME280;64853;53.200;6.080;2023-04-05T04:00:38;102518.69;;;17.64;35.78
76122;BME280;64853;53.200;6.080;2023-04-05T04:05:30;102528.13;;;17.80;35.63
76122;BME280;64853;53.200;6.080;2023-04-05T04:10:29;102518.72;;;17.93;35.64
76122;BME280;64853;53.200;6.080;2023-04-05T04:15:22;102521.69;;;18.03;35.08
76122;BME280;64853;53.200;6.080;2023-04-05T04:20:14;102507.53;;;18.12;35.48
76122;BME280;64853;53.200;6.080;2023-04-05T04:25:07;102491.97;;;18.06;35.33
76122;BME280;64853;53.200;6.080;2023-04-05T04:30:02;102517.25;;;18.31;35.17
76122;BME280;64853;53.200;6.080;2023-04-05T04:34:55;102514.06;;;18.39;35.03
76122;BME280;64853;53.200;6.080;2023-04-05T04:39:48;102514.25;;;18.50;34.84
76122;BME280;64853;53.200;6.080;2023-04-05T04:44:42;102514.34;;;18.55;34.99
76122;BME280;64853;53.200;6.080;2023-04-05T04:49:35;102516.69;;;18.63;34.86
76122;BME280;64853;53.200;6.080;2023-04-05T04:54:27;102520.94;;;18.71;35.00
76122;BME280;64853;53.200;6.080;2023-04-05T04:59:19;102517.94;;;18.72;34.89
76122;BME280;64853;53.200;6.080;2023-04-05T05:04:11;102523.13;;;18.86;34.78
76122;BME280;64853;53.200;6.080;2023-04-05T05:09:05;102504.81;;;18.80;34.53
76122;BME280;64853;53.200;6.080;2023-04-05T05:13:57;102513.09;;;18.97;34.63
76122;BME280;64853;53.200;6.080;2023-04-05T05:18:49;102512.91;;;19.03;34.41
76122;BME280;64853;53.200;6.080;2023-04-05T05:23:42;102501.03;;;19.03;34.88
76122;BME280;64853;53.200;6.080;2023-04-05T05:28:35;102514.72;;;19.15;34.45
76122;BME280;64853;53.200;6.080;2023-04-05T05:33:28;102506.53;;;19.20;34.48
76122;BME280;64853;53.200;6.080;2023-04-05T05:38:20;102502.72;;;19.26;34.28
76122;BME280;64853;53.200;6.080;2023-04-05T05:43:13;102493.91;;;19.29;34.00
76122;BME280;64853;53.200;6.080;2023-04-05T05:48:07;102500.28;;;19.29;34.39
76122;BME280;64853;53.200;6.080;2023-04-05T05:52:59;102482.53;;;19.25;34.24
76122;BME280;64853;53.200;6.080;2023-04-05T05:57:51;102488.38;;;19.29;34.03
76122;BME280;64853;53.200;6.080;2023-04-05T06:02:43;102499.53;;;19.34;33.97
76122;BME280;64853;53.200;6.080;2023-04-05T06:07:37;102500.09;;;19.36;34.05
76122;BME280;64853;53.200;6.080;2023-04-05T06:12:29;102501.78;;;19.37;33.87
76122;BME280;64853;53.200;6.080;2023-04-05T06:17:21;102503.44;;;19.38;34.06
76122;BME280;64853;53.200;6.080;2023-04-05T06:22:13;102510.91;;;19.38;33.99
76122;BME280;64853;53.200;6.080;2023-04-05T06:27:07;102507.81;;;19.34;34.32
76122;BME280;64853;53.200;6.080;2023-04-05T06:31:59;102516.53;;;19.26;34.34
76122;BME280;64853;53.200;6.080;2023-04-05T06:36:51;102509.84;;;19.22;33.96
76122;BME280;64853;53.200;6.080;2023-04-05T06:41:45;102518.22;;;19.27;34.19
76122;BME280;64853;53.200;6.080;2023-04-05T06:46:39;102516.88;;;19.29;35.43
76122;BME280;64853;53.200;6.080;2023-04-05T06:51:31;102491.59;;;19.21;36.29
76122;BME280;64853;53.200;6.080;2023-04-05T06:56:24;102509.16;;;19.32;35.77
76122;BME280;64853;53.200;6.080;2023-04-05T07:01:17;102521.19;;;19.42;34.94
76122;BME280;64853;53.200;6.080;2023-04-05T07:06:11;102514.22;;;19.40;35.21
76122;BME280;64853;53.200;6.080;2023-04-05T07:11:04;102490.06;;;19.30;35.14
76122;BME280;64853;53.200;6.080;2023-04-05T07:16:00;102508.59;;;19.52;35.32
76122;BME280;64853;53.200;6.080;2023-04-05T07:20:55;102504.59;;;19.42;34.87
76122;BME280;64853;53.200;6.080;2023-04-05T07:25:51;102510.94;;;19.43;34.63
76122;BME280;64853;53.200;6.080;2023-04-05T07:30:43;102501.13;;;19.30;34.60
76122;BME280;64853;53.200;6.080;2023-04-05T07:35:35;102505.31;;;19.33;35.05
76122;BME280;64853;53.200;6.080;2023-04-05T07:40:27;102500.81;;;19.26;35.85
76122;BME280;64853;53.200;6.080;2023-04-05T07:45:21;102497.78;;;19.28;36.43
76122;BME280;64853;53.200;6.080;2023-04-05T07:50:13;102509.41;;;19.30;38.38
76122;BME280;64853;53.200;6.080;2023-04-05T07:55:07;102506.63;;;19.30;37.50
76122;BME280;64853;53.200;6.080;2023-04-05T07:59:59;102508.31;;;19.31;37.47
76122;BME280;64853;53.200;6.080;2023-04-05T08:04:53;102506.63;;;19.30;36.27
76122;BME280;64853;53.200;6.080;2023-04-05T08:09:45;102497.78;;;19.28;36.20
76122;BME280;64853;53.200;6.080;2023-04-05T08:14:37;102489.44;;;19.23;36.09
76122;BME280;64853;53.200;6.080;2023-04-05T08:19:30;102492.19;;;19.23;36.20
76122;BME280;64853;53.200;6.080;2023-04-05T08:24:23;102481.75;;;19.08;36.51
76122;BME280;64853;53.200;6.080;2023-04-05T08:29:16;102472.06;;;19.05;36.11
76122;BME280;64853;53.200;6.080;2023-04-05T08:34:08;102459.53;;;18.98;35.95
76122;BME280;64853;53.200;6.080;2023-04-05T08:39:00;102475.06;;;19.04;35.93
76122;BME280;64853;53.200;6.080;2023-04-05T08:43:56;102479.91;;;19.14;35.69
76122;BME280;64853;53.200;6.080;2023-04-05T08:48:48;102459.84;;;19.01;35.68
76122;BME280;64853;53.200;6.080;2023-04-05T08:53:41;102478.47;;;19.11;35.48
76122;BME280;64853;53.200;6.080;2023-04-05T08:58:34;102478.09;;;19.02;35.26
76122;BME280;64853;53.200;6.080;2023-04-05T09:03:34;102462.53;;;18.96;35.57
76122;BME280;64853;53.200;6.080;2023-04-05T09:08:26;102469.56;;;19.04;35.55
76122;BME280;64853;53.200;6.080;2023-04-05T09:13:19;102469.88;;;19.07;35.57
76122;BME280;64853;53.200;6.080;2023-04-05T09:18:11;102477.59;;;19.05;35.64
76122;BME280;64853;53.200;6.080;2023-04-05T09:23:04;102472.38;;;19.09;35.59
76122;BME280;64853;53.200;6.080;2023-04-05T09:27:57;102473.19;;;19.09;35.28
76122;BME280;64853;53.200;6.080;2023-04-05T09:32:51;102437.16;;;18.99;35.51
76122;BME280;64853;53.200;6.080;2023-04-05T09:37:49;102456.13;;;19.13;35.53
76122;BME280;64853;53.200;6.080;2023-04-05T09:42:45;102446.81;;;19.19;35.42
76122;BME280;64853;53.200;6.080;2023-04-05T09:47:39;102460.44;;;19.25;36.60
76122;BME280;64853;53.200;6.080;2023-04-05T09:52:32;102463.59;;;19.34;36.92
76122;BME280;64853;53.200;6.080;2023-04-05T09:57:27;102449.25;;;19.37;36.27
76122;BME280;64853;53.200;6.080;2023-04-05T10:02:22;102415.91;;;19.22;36.01
76122;BME280;64853;53.200;6.080;2023-04-05T10:07:14;102449.56;;;19.41;35.80
76122;BME280;64853;53.200;6.080;2023-04-05T10:12:08;102445.28;;;20.05;35.58
76122;BME280;64853;53.200;6.080;2023-04-05T10:17:07;102419.78;;;19.97;35.63
76122;BME280;64853;53.200;6.080;2023-04-05T10:22:01;102428.91;;;19.98;35.70
76122;BME280;64853;53.200;6.080;2023-04-05T10:27:04;102432.75;;;19.97;35.62
76122;BME280;64853;53.200;6.080;2023-04-05T10:32:02;102435.13;;;20.10;35.36
76122;BME280;64853;53.200;6.080;2023-04-05T10:36:57;102427.06;;;20.36;34.86
76122;BME280;64853;53.200;6.080;2023-04-05T10:41:56;102400.31;;;20.52;34.79
76122;BME280;64853;53.200;6.080;2023-04-05T10:46:52;102419.47;;;20.64;34.50
76122;BME280;64853;53.200;6.080;2023-04-05T10:51:45;102403.38;;;20.55;35.79
76122;BME280;64853;53.200;6.080;2023-04-05T10:56:38;102396.13;;;20.49;35.91
76122;BME280;64853;53.200;6.080;2023-04-05T11:01:32;102396.09;;;20.44;36.29
76122;BME280;64853;53.200;6.080;2023-04-05T11:06:30;102391.06;;;20.36;36.08
76122;BME280;64853;53.200;6.080;2023-04-05T11:11:23;102386.03;;;20.33;35.63
76122;BME280;64853;53.200;6.080;2023-04-05T11:16:16;102387.63;;;20.24;34.87
76122;BME280;64853;53.200;6.080;2023-04-05T11:21:10;102340.28;;;19.88;34.58
76122;BME280;64853;53.200;6.080;2023-04-05T11:26:04;102368.03;;;19.98;33.91
76122;BME280;64853;53.200;6.080;2023-04-05T11:31:11;102369.09;;;19.92;32.08
76122;BME280;64853;53.200;6.080;2023-04-05T11:36:04;102366.19;;;19.76;31.46
76122;BME280;64853;53.200;6.080;2023-04-05T11:41:10;102345.59;;;19.62;30.30
76122;BME280;64853;53.200;6.080;2023-04-05T11:46:03;102358.41;;;19.73;31.88
76122;BME280;64853;53.200;6.080;2023-04-05T11:50:56;102343.50;;;19.74;33.46
76122;BME280;64853;53.200;6.080;2023-04-05T11:55:49;102341.88;;;19.78;34.07
76122;BME280;64853;53.200;6.080;2023-04-05T12:00:44;102329.69;;;19.74;33.65
76122;BME280;64853;53.200;6.080;2023-04-05T12:05:50;102324.16;;;19.74;34.33
76122;BME280;64853;53.200;6.080;2023-04-05T12:10:42;102324.22;;;19.84;34.57
76122;BME280;64853;53.200;6.080;2023-04-05T12:15:36;102329.84;;;19.95;34.15
76122;BME280;64853;53.200;6.080;2023-04-05T12:20:31;102330.66;;;19.95;34.13
76122;BME280;64853;53.200;6.080;2023-04-05T12:25:24;102324.56;;;19.93;34.28
76122;BME280;64853;53.200;6.080;2023-04-05T12:30:17;102317.97;;;19.94;34.27
76122;BME280;64853;53.200;6.080;2023-04-05T12:35:11;102299.81;;;19.76;34.41
76122;BME280;64853;53.200;6.080;2023-04-05T12:40:10;102310.50;;;20.00;34.29
76122;BME280;64853;53.200;6.080;2023-04-05T12:45:05;102307.25;;;20.08;34.42
76122;BME280;64853;53.200;6.080;2023-04-05T12:49:57;102297.56;;;20.06;34.38
76122;BME280;64853;53.200;6.080;2023-04-05T12:54:53;102298.38;;;20.06;34.02
76122;BME280;64853;53.200;6.080;2023-04-05T12:59:47;102293.91;;;20.00;34.41
76122;BME280;64853;53.200;6.080;2023-04-05T13:04:39;102291.13;;;19.95;34.26
76122;BME280;64853;53.200;6.080;2023-04-05T13:09:31;102271.06;;;19.77;34.32
76122;BME280;64853;53.200;6.080;2023-04-05T13:14:26;102277.75;;;19.81;34.38
76122;BME280;64853;53.200;6.080;2023-04-05T13:19:20;102271.06;;;19.77;34.97
76122;BME280;64853;53.200;6.080;2023-04-05T13:24:13;102271.59;;;19.74;34.77
76122;BME280;64853;53.200;6.080;2023-04-05T13:29:05;102262.69;;;19.67;35.35
76122;BME280;64853;53.200;6.080;2023-04-05T13:33:57;102253.00;;;19.64;35.12
76122;BME280;64853;53.200;6.080;2023-04-05T13:38:51;102246.69;;;19.69;35.03
76122;BME280;64853;53.200;6.080;2023-04-05T13:43:44;102238.97;;;19.76;35.00
76122;BME280;64853;53.200;6.080;2023-04-05T13:48:36;102243.69;;;19.76;34.91
76122;BME280;64853;53.200;6.080;2023-04-05T13:53:28;102233.72;;;19.75;35.46
76122;BME280;64853;53.200;6.080;2023-04-05T13:58:21;102224.59;;;19.74;35.23
76122;BME280;64853;53.200;6.080;2023-04-05T14:03:13;102214.34;;;19.75;35.69
76122;BME280;64853;53.200;6.080;2023-04-05T14:08:05;102213.53;;;19.74;35.38
76122;BME280;64853;53.200;6.080;2023-04-05T14:12:57;102201.91;;;19.72;35.30
76122;BME280;64853;53.200;6.080;2023-04-05T14:17:50;102203.88;;;19.77;34.85
76122;BME280;64853;53.200;6.080;2023-04-05T14:22:42;102199.16;;;19.77;35.36
76122;BME280;64853;53.200;6.080;2023-04-05T14:27:33;102192.84;;;19.87;34.91
76122;BME280;64853;53.200;6.080;2023-04-05T14:32:30;102170.44;;;19.83;35.17
76122;BME280;64853;53.200;6.080;2023-04-05T14:37:23;102183.25;;;20.00;34.74
76122;BME280;64853;53.200;6.080;2023-04-05T14:42:15;102171.91;;;20.01;35.15
76122;BME280;64853;53.200;6.080;2023-04-05T14:47:07;102170.81;;;20.02;35.08
76122;BME280;64853;53.200;6.080;2023-04-05T14:51:59;102171.34;;;19.99;35.36
76122;BME280;64853;53.200;6.080;2023-04-05T14:56:53;102144.75;;;19.88;35.61
76122;BME280;64853;53.200;6.080;2023-04-05T15:01:45;102165.44;;;19.80;36.04
76122;BME280;64853;53.200;6.080;2023-04-05T15:06:38;102148.03;;;19.80;35.92
76122;BME280;64853;53.200;6.080;2023-04-05T15:11:30;102146.19;;;20.01;34.32
76122;BME280;64853;53.200;6.080;2023-04-05T15:16:26;102112.91;;;19.80;35.44
76122;BME280;64853;53.200;6.080;2023-04-05T15:21:19;102138.41;;;19.93;35.35
76122;BME280;64853;53.200;6.080;2023-04-05T15:26:12;102136.19;;;19.90;35.85
76122;BME280;64853;53.200;6.080;2023-04-05T15:31:04;102138.69;;;19.96;35.75
76122;BME280;64853;53.200;6.080;2023-04-05T15:35:59;102146.72;;;19.93;35.20
76122;BME280;64853;53.200;6.080;2023-04-05T15:40:51;102134.78;;;19.92;35.62
76122;BME280;64853;53.200;6.080;2023-04-05T15:45:44;102126.22;;;19.89;35.44
76122;BME280;64853;53.200;6.080;2023-04-05T15:50:36;102127.88;;;19.90;34.87
76122;BME280;64853;53.200;6.080;2023-04-05T15:55:30;102104.31;;;19.77;35.30
76122;BME280;64853;53.200;6.080;2023-04-05T16:00:23;102102.09;;;19.74;35.47
76122;BME280;64853;53.200;6.080;2023-04-05T16:05:16;102116.25;;;19.88;35.69
76122;BME280;64853;53.200;6.080;2023-04-05T16:10:09;102113.47;;;19.88;35.59
76122;BME280;64853;53.200;6.080;2023-04-05T16:15:04;102115.41;;;19.87;35.70
76122;BME280;64853;53.200;6.080;2023-04-05T16:19:56;102104.63;;;19.86;35.61
76122;BME280;64853;53.200;6.080;2023-04-05T16:24:48;102104.06;;;19.83;35.72
76122;BME280;64853;53.200;6.080;2023-04-05T16:29:41;102080.78;;;19.74;35.41
76122;BME280;64853;53.200;6.080;2023-04-05T16:34:35;102089.13;;;19.84;35.35
76122;BME280;64853;53.200;6.080;2023-04-05T16:39:27;102077.22;;;19.84;35.60
76122;BME280;64853;53.200;6.080;2023-04-05T16:44:19;102089.72;;;19.97;35.19
76122;BME280;64853;53.200;6.080;2023-04-05T16:49:11;102074.19;;;19.86;35.81
76122;BME280;64853;53.200;6.080;2023-04-05T16:54:06;102073.09;;;19.81;35.73
76122;BME280;64853;53.200;6.080;2023-04-05T16:58:59;102091.34;;;19.88;35.89
76122;BME280;64853;53.200;6.080;2023-04-05T17:03:51;102090.53;;;19.87;35.68
76122;BME280;64853;53.200;6.080;2023-04-05T17:08:43;102083.03;;;19.82;35.98
76122;BME280;64853;53.200;6.080;2023-04-05T17:13:37;102076.69;;;19.82;35.71
76122;BME280;64853;53.200;6.080;2023-04-05T17:18:30;102083.84;;;19.83;35.37
76122;BME280;64853;53.200;6.080;2023-04-05T17:23:22;102080.53;;;19.76;36.05
76122;BME280;64853;53.200;6.080;2023-04-05T17:28:15;102082.41;;;19.70;36.55
76122;BME280;64853;53.200;6.080;2023-04-05T17:33:08;102078.81;;;19.70;36.15
76122;BME280;64853;53.200;6.080;2023-04-05T17:38:00;102078.28;;;19.68;35.53
76122;BME280;64853;53.200;6.080;2023-04-05T17:42:53;102080.72;;;19.64;36.33
76122;BME280;64853;53.200;6.080;2023-04-05T17:47:45;102067.47;;;19.61;37.51
76122;BME280;64853;53.200;6.080;2023-04-05T17:52:39;102048.88;;;19.56;37.20
76122;BME280;64853;53.200;6.080;2023-04-05T17:57:31;102073.56;;;19.73;36.73
76122;BME280;64853;53.200;6.080;2023-04-05T18:02:24;102072.47;;;19.69;37.46
76122;BME280;64853;53.200;6.080;2023-04-05T18:07:17;102078.25;;;19.62;37.39
76122;BME280;64853;53.200;6.080;2023-04-05T18:12:10;102074.59;;;19.57;36.86
76122;BME280;64853;53.200;6.080;2023-04-05T18:17:04;102071.81;;;19.52;37.04
76122;BME280;64853;53.200;6.080;2023-04-05T18:21:56;102074.03;;;19.55;37.17
76122;BME280;64853;53.200;6.080;2023-04-05T18:26:48;102073.16;;;19.49;36.89
76122;BME280;64853;53.200;6.080;2023-04-05T18:31:42;102074.75;;;19.40;37.30
76122;BME280;64853;53.200;6.080;2023-04-05T18:36:35;102068.31;;;19.29;37.47
76122;BME280;64853;53.200;6.080;2023-04-05T18:41:29;102075.91;;;19.44;37.43
76122;BME280;64853;53.200;6.080;2023-04-05T18:46:22;102076.06;;;19.27;37.53
76122;BME280;64853;53.200;6.080;2023-04-05T18:51:17;102082.50;;;19.43;37.95
76122;BME280;64853;53.200;6.080;2023-04-05T18:56:09;102082.25;;;19.44;37.46
76122;BME280;64853;53.200;6.080;2023-04-05T19:01:03;102089.97;;;19.42;37.57
76122;BME280;64853;53.200;6.080;2023-04-05T19:05:55;102091.88;;;19.37;37.82
76122;BME280;64853;53.200;6.080;2023-04-05T19:10:49;102089.75;;;19.49;37.56
76122;BME280;64853;53.200;6.080;2023-04-05T19:15:43;102072.25;;;19.38;37.52
76122;BME280;64853;53.200;6.080;2023-04-05T19:20:35;102093.81;;;19.36;38.15
76122;BME280;64853;53.200;6.080;2023-04-05T19:25:27;102091.66;;;19.43;38.71
76122;BME280;64853;53.200;6.080;2023-04-05T19:30:21;102059.78;;;19.30;37.26
76122;BME280;64853;53.200;6.080;2023-04-05T19:35:13;102080.53;;;19.33;38.01
76122;BME280;64853;53.200;6.080;2023-04-05T19:40:07;102096.34;;;19.43;38.09
76122;BME280;64853;53.200;6.080;2023-04-05T19:45:00;102099.91;;;19.38;37.91
76122;BME280;64853;53.200;6.080;2023-04-05T19:49:54;102040.50;;;18.98;37.80
76122;BME280;64853;53.200;6.080;2023-04-05T19:54:47;102097.63;;;19.30;37.98
76122;BME280;64853;53.200;6.080;2023-04-05T19:59:39;102094.03;;;19.24;38.09
76122;BME280;64853;53.200;6.080;2023-04-05T20:04:32;102090.13;;;19.20;37.52
76122;BME280;64853;53.200;6.080;2023-04-05T20:09:30;102067.59;;;19.01;37.64
76122;BME280;64853;53.200;6.080;2023-04-05T20:14:27;102085.09;;;19.12;37.42
76122;BME280;64853;53.200;6.080;2023-04-05T20:19:26;102014.81;;;18.65;37.90
76122;BME280;64853;53.200;6.080;2023-04-05T20:24:20;102073.97;;;19.07;38.23
76122;BME280;64853;53.200;6.080;2023-04-05T20:29:16;102069.28;;;19.02;38.40
76122;BME280;64853;53.200;6.080;2023-04-05T20:34:13;102054.88;;;19.00;37.82
76122;BME280;64853;53.200;6.080;2023-04-05T20:39:06;102049.31;;;18.95;37.96
76122;BME280;64853;53.200;6.080;2023-04-05T20:43:58;102055.94;;;18.94;37.98
76122;BME280;64853;53.200;6.080;2023-04-05T20:48:51;102044.31;;;18.92;37.88
76122;BME280;64853;53.200;6.080;2023-04-05T20:53:44;102047.88;;;18.87;38.01
76122;BME280;64853;53.200;6.080;2023-04-05T20:58:37;102047.31;;;18.85;37.65
76122;BME280;64853;53.200;6.080;2023-04-05T21:03:31;102048.66;;;18.83;37.91
76122;BME280;64853;53.200;6.080;2023-04-05T21:08:25;102039.50;;;18.77;38.01
76122;BME280;64853;53.200;6.080;2023-04-05T21:13:17;102031.72;;;18.74;37.71
76122;BME280;64853;53.200;6.080;2023-04-05T21:18:09;102023.59;;;18.62;37.98
76122;BME280;64853;53.200;6.080;2023-04-05T21:23:01;102030.03;;;18.68;37.68
76122;BME280;64853;53.200;6.080;2023-04-05T21:27:55;101999.75;;;18.46;37.76
76122;BME280;64853;53.200;6.080;2023-04-05T21:32:47;101998.06;;;18.45;37.64
76122;BME280;64853;53.200;6.080;2023-04-05T21:37:39;102032.41;;;18.59;37.75
76122;BME280;64853;53.200;6.080;2023-04-05T21:42:31;102031.28;;;18.55;37.83
76122;BME280;64853;53.200;6.080;2023-04-05T21:47:24;102030.69;;;18.53;37.93
76122;BME280;64853;53.200;6.080;2023-04-05T21:52:16;102029.56;;;18.49;37.96
76122;BME280;64853;53.200;6.080;2023-04-05T21:57:08;102027.34;;;18.46;37.66
76122;BME280;64853;53.200;6.080;2023-04-05T22:02:00;102006.78;;;18.31;37.67
76122;BME280;64853;53.200;6.080;2023-04-05T22:06:54;102018.16;;;18.40;37.60
76122;BME280;64853;53.200;6.080;2023-04-05T22:11:48;102018.94;;;18.35;37.45
76122;BME280;64853;53.200;6.080;2023-04-05T22:16:41;102016.19;;;18.35;37.70
76122;BME280;64853;53.200;6.080;2023-04-05T22:21:34;102012.88;;;18.33;37.75
76122;BME280;64853;53.200;6.080;2023-04-05T22:26:27;102002.63;;;18.29;37.59
76122;BME280;64853;53.200;6.080;2023-04-05T22:31:20;101999.03;;;18.28;37.66
76122;BME280;64853;53.200;6.080;2023-04-05T22:36:12;101999.56;;;18.25;37.65
76122;BME280;64853;53.200;6.080;2023-04-05T22:41:04;101993.47;;;18.23;37.61
76122;BME280;64853;53.200;6.080;2023-04-05T22:45:58;101994.00;;;18.20;37.52
76122;BME280;64853;53.200;6.080;2023-04-05T22:50:50;101993.91;;;18.15;37.59
76122;BME280;64853;53.200;6.080;2023-04-05T22:55:42;101993.09;;;18.14;37.56
76122;BME280;64853;53.200;6.080;2023-04-05T23:00:35;101996.09;;;18.13;37.49
76122;BME280;64853;53.200;6.080;2023-04-05T23:05:28;102001.63;;;18.13;37.69
76122;BME280;64853;53.200;6.080;2023-04-05T23:10:21;101989.22;;;18.10;37.58
76122;BME280;64853;53.200;6.080;2023-04-05T23:15:13;101976.75;;;18.08;37.57
76122;BME280;64853;53.200;6.080;2023-04-05T23:20:06;101974.25;;;18.06;37.56
76122;BME280;64853;53.200;6.080;2023-04-05T23:25:00;101966.09;;;17.94;37.66
76122;BME280;64853;53.200;6.080;2023-04-05T23:29:52;101928.75;;;17.81;37.58
76122;BME280;64853;53.200;6.080;2023-04-05T23:34:44;101959.00;;;17.98;37.63
76122;BME280;64853;53.200;6.080;2023-04-05T23:39:36;101955.63;;;17.91;37.59
76122;BME280;64853;53.200;6.080;2023-04-05T23:44:29;101963.03;;;17.91;37.67
76122;BME280;64853;53.200;6.080;2023-04-05T23:49:21;101962.47;;;17.89;37.39
76122;BME280;64853;53.200;6.080;2023-04-05T23:54:16;101946.69;;;17.84;37.35
76122;BME280;64853;53.200;6.080;2023-04-05T23:59:08;101927.63;;;17.77;37.41
